sensor_id;sensor_type;location;lat;lon;timestamp;P1;durP1;ratioP1;P2;durP2;ratioP2
11681;SDS011;5897;42.640;23.310;2022-10-17T00:01:20;5.63;;;5.07;;
11681;SDS011;5897;42.640;23.310;2022-10-17T00:03:47;6.18;;;5.25;;
11681;SDS011;5897;42.640;23.310;2022-10-17T00:06:15;6.78;;;5.13;;
11681;SDS011;5897;42.640;23.310;2022-10-17T00:08:42;7.38;;;5.07;;
11681;SDS011;5897;42.640;23.310;2022-10-17T00:11:12;6.47;;;5.35;;
11681;SDS011;5897;42.640;23.310;2022-10-17T00:13:40;5.65;;;5.15;;
11681;SDS011;5897;42.640;23.310;2022-10-17T00:16:07;7.13;;;5.20;;
11681;SDS011;5897;42.640;23.310;2022-10-17T00:18:34;7.07;;;5.78;;
11681;SDS011;5897;42.640;23.310;2022-10-17T00:21:01;6.15;;;5.20;;
11681;SDS011;5897;42.640;23.310;2022-10-17T00:23:29;6.63;;;5.82;;
11681;SDS011;5897;42.640;23.310;2022-10-17T00:25:59;6.20;;;5.60;;
11681;SDS011;5897;42.640;23.310;2022-10-17T00:28:26;7.32;;;5.53;;
11681;SDS011;5897;42.640;23.310;2022-10-17T00:30:56;6.35;;;5.75;;
11681;SDS011;5897;42.640;23.310;2022-10-17T00:33:24;7.10;;;6.40;;
11681;SDS011;5897;42.640;23.310;2022-10-17T00:35:51;6.72;;;6.00;;
11681;SDS011;5897;42.640;23.310;2022-10-17T00:38:29;8.30;;;5.90;;
11681;SDS011;5897;42.640;23.310;2022-10-17T00:40:56;8.73;;;7.63;;
11681;SDS011;5897;42.640;23.310;2022-10-17T00:43:23;7.88;;;6.95;;
11681;SDS011;5897;42.640;23.310;2022-10-17T00:45:50;8.32;;;6.28;;
11681;SDS011;5897;42.640;23.310;2022-10-17T00:48:17;8.23;;;6.57;;
11681;SDS011;5897;42.640;23.310;2022-10-17T00:50:46;6.72;;;6.03;;
11681;SDS011;5897;42.640;23.310;2022-10-17T00:53:15;8.32;;;6.60;;
11681;SDS011;5897;42.640;23.310;2022-10-17T00:55:45;6.88;;;6.18;;
11681;SDS011;5897;42.640;23.310;2022-10-17T00:58:14;7.25;;;5.72;;
11681;SDS011;5897;42.640;23.310;2022-10-17T01:00:42;7.65;;;5.90;;
11681;SDS011;5897;42.640;23.310;2022-10-17T01:03:10;6.80;;;5.93;;
11681;SDS011;5897;42.640;23.310;2022-10-17T01:05:37;6.88;;;6.18;;
11681;SDS011;5897;42.640;23.310;2022-10-17T01:08:05;7.72;;;6.38;;
11681;SDS011;5897;42.640;23.310;2022-10-17T01:10:34;7.05;;;6.28;;
11681;SDS011;5897;42.640;23.310;2022-10-17T01:13:11;8.40;;;6.75;;
11681;SDS011;5897;42.640;23.310;2022-10-17T01:15:47;7.20;;;6.47;;
11681;SDS011;5897;42.640;23.310;2022-10-17T01:18:24;8.25;;;6.63;;
11681;SDS011;5897;42.640;23.310;2022-10-17T01:20:59;8.90;;;7.55;;
11681;SDS011;5897;42.640;23.310;2022-10-17T01:23:53;9.75;;;8.23;;
11681;SDS011;5897;42.640;23.310;2022-10-17T01:26:39;9.27;;;8.18;;
11681;SDS011;5897;42.640;23.310;2022-10-17T01:29:34;9.00;;;7.97;;
11681;SDS011;5897;42.640;23.310;2022-10-17T01:32:13;10.77;;;8.43;;
11681;SDS011;5897;42.640;23.310;2022-10-17T01:34:44;10.98;;;7.72;;
11681;SDS011;5897;42.640;23.310;2022-10-17T01:37:19;9.40;;;7.75;;
11681;SDS011;5897;42.640;23.310;2022-10-17T01:39:51;8.85;;;8.00;;
11681;SDS011;5897;42.640;23.310;2022-10-17T01:42:23;8.63;;;7.00;;
11681;SDS011;5897;42.640;23.310;2022-10-17T01:44:54;9.50;;;7.35;;
11681;SDS011;5897;42.640;23.310;2022-10-17T01:47:27;8.65;;;7.72;;
11681;SDS011;5897;42.640;23.310;2022-10-17T01:49:59;8.70;;;7.20;;
11681;SDS011;5897;42.640;23.310;2022-10-17T01:52:31;11.57;;;7.35;;
11681;SDS011;5897;42.640;23.310;2022-10-17T01:55:05;9.60;;;6.68;;
11681;SDS011;5897;42.640;23.310;2022-10-17T01:57:36;8.25;;;6.82;;
11681;SDS011;5897;42.640;23.310;2022-10-17T02:00:07;8.23;;;6.35;;
11681;SDS011;5897;42.640;23.310;2022-10-17T02:02:39;10.40;;;6.95;;
11681;SDS011;5897;42.640;23.310;2022-10-17T02:05:07;8.32;;;6.82;;
11681;SDS011;5897;42.640;23.310;2022-10-17T02:07:34;8.85;;;6.95;;
11681;SDS011;5897;42.640;23.310;2022-10-17T02:10:01;11.00;;;6.75;;
11681;SDS011;5897;42.640;23.310;2022-10-17T02:12:32;8.25;;;6.70;;
11681;SDS011;5897;42.640;23.310;2022-10-17T02:15:09;9.20;;;7.72;;
11681;SDS011;5897;42.640;23.310;2022-10-17T02:17:52;11.65;;;8.27;;
11681;SDS011;5897;42.640;23.310;2022-10-17T02:20:30;8.90;;;7.78;;
11681;SDS011;5897;42.640;23.310;2022-10-17T02:23:05;12.90;;;8.57;;
11681;SDS011;5897;42.640;23.310;2022-10-17T02:25:37;11.38;;;8.13;;
11681;SDS011;5897;42.640;23.310;2022-10-17T02:28:13;8.80;;;7.57;;
11681;SDS011;5897;42.640;23.310;2022-10-17T02:30:47;8.23;;;7.10;;
11681;SDS011;5897;42.640;23.310;2022-10-17T02:33:22;10.93;;;8.07;;
11681;SDS011;5897;42.640;23.310;2022-10-17T02:35:53;10.02;;;8.15;;
11681;SDS011;5897;42.640;23.310;2022-10-17T02:38:25;12.65;;;8.85;;
11681;SDS011;5897;42.640;23.310;2022-10-17T02:40:54;7.25;;;6.22;;
11681;SDS011;5897;42.640;23.310;2022-10-17T02:43:21;7.90;;;6.82;;
11681;SDS011;5897;42.640;23.310;2022-10-17T02:45:49;9.90;;;6.80;;
11681;SDS011;5897;42.640;23.310;2022-10-17T02:48:18;10.07;;;6.80;;
11681;SDS011;5897;42.640;23.310;2022-10-17T02:50:56;7.45;;;5.95;;
11681;SDS011;5897;42.640;23.310;2022-10-17T02:53:30;8.15;;;5.80;;
11681;SDS011;5897;42.640;23.310;2022-10-17T02:56:04;6.47;;;5.80;;
11681;SDS011;5897;42.640;23.310;2022-10-17T02:58:39;7.25;;;5.53;;
11681;SDS011;5897;42.640;23.310;2022-10-17T03:01:08;7.63;;;5.72;;
11681;SDS011;5897;42.640;23.310;2022-10-17T03:03:36;7.65;;;6.22;;
11681;SDS011;5897;42.640;23.310;2022-10-17T03:06:03;10.15;;;6.82;;
11681;SDS011;5897;42.640;23.310;2022-10-17T03:08:30;7.07;;;6.22;;
11681;SDS011;5897;42.640;23.310;2022-10-17T03:10:57;7.32;;;6.05;;
11681;SDS011;5897;42.640;23.310;2022-10-17T03:13:23;6.22;;;5.63;;
11681;SDS011;5897;42.640;23.310;2022-10-17T03:15:50;6.40;;;5.30;;
11681;SDS011;5897;42.640;23.310;2022-10-17T03:18:17;6.65;;;5.28;;
11681;SDS011;5897;42.640;23.310;2022-10-17T03:20:45;7.53;;;6.32;;
11681;SDS011;5897;42.640;23.310;2022-10-17T03:23:12;7.03;;;5.53;;
11681;SDS011;5897;42.640;23.310;2022-10-17T03:25:38;7.32;;;5.78;;
11681;SDS011;5897;42.640;23.310;2022-10-17T03:28:05;6.50;;;5.65;;
11681;SDS011;5897;42.640;23.310;2022-10-17T03:30:32;6.88;;;6.18;;
11681;SDS011;5897;42.640;23.310;2022-10-17T03:32:59;8.20;;;5.60;;
11681;SDS011;5897;42.640;23.310;2022-10-17T03:35:26;6.70;;;5.95;;
11681;SDS011;5897;42.640;23.310;2022-10-17T03:37:55;7.32;;;5.65;;
11681;SDS011;5897;42.640;23.310;2022-10-17T03:40:21;7.95;;;6.32;;
11681;SDS011;5897;42.640;23.310;2022-10-17T03:42:48;6.35;;;5.63;;
11681;SDS011;5897;42.640;23.310;2022-10-17T03:45:15;7.03;;;5.65;;
11681;SDS011;5897;42.640;23.310;2022-10-17T03:47:42;6.80;;;6.10;;
11681;SDS011;5897;42.640;23.310;2022-10-17T03:50:08;7.28;;;6.57;;
11681;SDS011;5897;42.640;23.310;2022-10-17T03:52:35;7.03;;;6.15;;
11681;SDS011;5897;42.640;23.310;2022-10-17T03:55:04;9.10;;;6.38;;
11681;SDS011;5897;42.640;23.310;2022-10-17T03:57:33;9.57;;;6.50;;
11681;SDS011;5897;42.640;23.310;2022-10-17T04:00:00;7.75;;;6.95;;
11681;SDS011;5897;42.640;23.310;2022-10-17T04:02:27;8.07;;;7.25;;
11681;SDS011;5897;42.640;23.310;2022-10-17T04:04:54;9.15;;;7.80;;
11681;SDS011;5897;42.640;23.310;2022-10-17T04:07:20;9.15;;;7.47;;
11681;SDS011;5897;42.640;23.310;2022-10-17T04:09:47;11.70;;;6.50;;
11681;SDS011;5897;42.640;23.310;2022-10-17T04:12:15;9.02;;;5.60;;
11681;SDS011;5897;42.640;23.310;2022-10-17T04:14:42;6.22;;;5.20;;
11681;SDS011;5897;42.640;23.310;2022-10-17T04:17:09;6.60;;;5.75;;
11681;SDS011;5897;42.640;23.310;2022-10-17T04:19:35;6.65;;;5.78;;
11681;SDS011;5897;42.640;23.310;2022-10-17T04:22:02;11.30;;;6.32;;
11681;SDS011;5897;42.640;23.310;2022-10-17T04:24:29;7.53;;;6.72;;
11681;SDS011;5897;42.640;23.310;2022-10-17T04:26:56;9.20;;;6.60;;
11681;SDS011;5897;42.640;23.310;2022-10-17T04:29:24;7.65;;;6.78;;
11681;SDS011;5897;42.640;23.310;2022-10-17T04:31:51;10.25;;;7.28;;
11681;SDS011;5897;42.640;23.310;2022-10-17T04:34:18;8.00;;;6.85;;
11681;SDS011;5897;42.640;23.310;2022-10-17T04:36:45;9.30;;;7.15;;
11681;SDS011;5897;42.640;23.310;2022-10-17T04:39:12;11.57;;;7.47;;
11681;SDS011;5897;42.640;23.310;2022-10-17T04:41:39;9.48;;;7.45;;
11681;SDS011;5897;42.640;23.310;2022-10-17T04:44:06;7.38;;;6.47;;
11681;SDS011;5897;42.640;23.310;2022-10-17T04:46:35;7.70;;;6.55;;
11681;SDS011;5897;42.640;23.310;2022-10-17T04:49:01;7.47;;;6.53;;
11681;SDS011;5897;42.640;23.310;2022-10-17T04:51:28;8.73;;;7.03;;
11681;SDS011;5897;42.640;23.310;2022-10-17T04:53:55;10.20;;;6.68;;
11681;SDS011;5897;42.640;23.310;2022-10-17T04:56:22;12.80;;;6.95;;
11681;SDS011;5897;42.640;23.310;2022-10-17T04:58:50;8.30;;;6.35;;
11681;SDS011;5897;42.640;23.310;2022-10-17T05:01:18;8.73;;;6.53;;
11681;SDS011;5897;42.640;23.310;2022-10-17T05:03:48;9.98;;;7.03;;
11681;SDS011;5897;42.640;23.310;2022-10-17T05:06:16;10.05;;;7.18;;
11681;SDS011;5897;42.640;23.310;2022-10-17T05:08:44;22.00;;;13.00;;
11681;SDS011;5897;42.640;23.310;2022-10-17T05:11:15;9.98;;;7.13;;
11681;SDS011;5897;42.640;23.310;2022-10-17T05:13:43;9.38;;;7.35;;
11681;SDS011;5897;42.640;23.310;2022-10-17T05:16:10;9.68;;;6.80;;
11681;SDS011;5897;42.640;23.310;2022-10-17T05:18:37;9.63;;;7.55;;
11681;SDS011;5897;42.640;23.310;2022-10-17T05:21:05;8.90;;;7.45;;
11681;SDS011;5897;42.640;23.310;2022-10-17T05:23:32;8.88;;;7.90;;
11681;SDS011;5897;42.640;23.310;2022-10-17T05:25:59;8.52;;;7.25;;
11681;SDS011;5897;42.640;23.310;2022-10-17T05:28:26;12.30;;;8.32;;
11681;SDS011;5897;42.640;23.310;2022-10-17T05:30:52;10.55;;;8.48;;
11681;SDS011;5897;42.640;23.310;2022-10-17T05:33:19;12.80;;;9.98;;
11681;SDS011;5897;42.640;23.310;2022-10-17T05:35:48;12.60;;;9.45;;
11681;SDS011;5897;42.640;23.310;2022-10-17T05:38:16;15.25;;;9.55;;
11681;SDS011;5897;42.640;23.310;2022-10-17T05:40:42;10.77;;;9.30;;
11681;SDS011;5897;42.640;23.310;2022-10-17T05:43:09;13.63;;;9.52;;
11681;SDS011;5897;42.640;23.310;2022-10-17T05:45:36;12.45;;;9.25;;
11681;SDS011;5897;42.640;23.310;2022-10-17T05:48:03;11.30;;;9.90;;
11681;SDS011;5897;42.640;23.310;2022-10-17T05:50:29;12.90;;;9.40;;
11681;SDS011;5897;42.640;23.310;2022-10-17T05:52:56;10.27;;;9.25;;
11681;SDS011;5897;42.640;23.310;2022-10-17T05:55:24;13.57;;;9.60;;
11681;SDS011;5897;42.640;23.310;2022-10-17T05:57:51;12.07;;;9.27;;
11681;SDS011;5897;42.640;23.310;2022-10-17T06:00:18;11.98;;;9.68;;
11681;SDS011;5897;42.640;23.310;2022-10-17T06:02:45;11.70;;;9.13;;
11681;SDS011;5897;42.640;23.310;2022-10-17T06:05:13;13.05;;;9.63;;
11681;SDS011;5897;42.640;23.310;2022-10-17T06:07:40;11.77;;;9.70;;
11681;SDS011;5897;42.640;23.310;2022-10-17T06:10:07;12.73;;;9.70;;
11681;SDS011;5897;42.640;23.310;2022-10-17T06:12:37;15.35;;;10.02;;
11681;SDS011;5897;42.640;23.310;2022-10-17T06:15:05;17.45;;;10.55;;
11681;SDS011;5897;42.640;23.310;2022-10-17T06:17:32;16.42;;;10.68;;
11681;SDS011;5897;42.640;23.310;2022-10-17T06:19:59;15.07;;;10.20;;
11681;SDS011;5897;42.640;23.310;2022-10-17T06:22:26;16.90;;;10.38;;
11681;SDS011;5897;42.640;23.310;2022-10-17T06:24:52;19.80;;;10.65;;
11681;SDS011;5897;42.640;23.310;2022-10-17T06:27:19;23.90;;;11.55;;
11681;SDS011;5897;42.640;23.310;2022-10-17T06:29:47;18.45;;;10.85;;
11681;SDS011;5897;42.640;23.310;2022-10-17T06:32:15;15.95;;;11.20;;
11681;SDS011;5897;42.640;23.310;2022-10-17T06:34:42;19.27;;;11.43;;
11681;SDS011;5897;42.640;23.310;2022-10-17T06:37:09;20.33;;;11.73;;
11681;SDS011;5897;42.640;23.310;2022-10-17T06:39:35;16.83;;;10.73;;
11681;SDS011;5897;42.640;23.310;2022-10-17T06:42:02;15.85;;;10.60;;
11681;SDS011;5897;42.640;23.310;2022-10-17T06:44:29;17.92;;;10.77;;
11681;SDS011;5897;42.640;23.310;2022-10-17T06:46:58;14.85;;;10.38;;
11681;SDS011;5897;42.640;23.310;2022-10-17T06:49:26;15.13;;;10.15;;
11681;SDS011;5897;42.640;23.310;2022-10-17T06:51:53;17.75;;;10.82;;
11681;SDS011;5897;42.640;23.310;2022-10-17T06:54:20;18.88;;;10.35;;
11681;SDS011;5897;42.640;23.310;2022-10-17T06:56:46;15.90;;;10.52;;
11681;SDS011;5897;42.640;23.310;2022-10-17T06:59:13;17.10;;;10.77;;
11681;SDS011;5897;42.640;23.310;2022-10-17T07:01:40;16.35;;;10.65;;
11681;SDS011;5897;42.640;23.310;2022-10-17T07:04:09;17.35;;;11.02;;
11681;SDS011;5897;42.640;23.310;2022-10-17T07:06:36;18.75;;;11.18;;
11681;SDS011;5897;42.640;23.310;2022-10-17T07:09:03;13.45;;;11.43;;
11681;SDS011;5897;42.640;23.310;2022-10-17T07:11:31;21.52;;;11.32;;
11681;SDS011;5897;42.640;23.310;2022-10-17T07:13:59;17.40;;;11.25;;
11681;SDS011;5897;42.640;23.310;2022-10-17T07:16:26;16.88;;;10.82;;
11681;SDS011;5897;42.640;23.310;2022-10-17T07:18:53;19.98;;;12.07;;
11681;SDS011;5897;42.640;23.310;2022-10-17T07:21:22;17.13;;;12.07;;
11681;SDS011;5897;42.640;23.310;2022-10-17T07:23:48;14.60;;;12.20;;
11681;SDS011;5897;42.640;23.310;2022-10-17T07:26:16;17.17;;;11.40;;
11681;SDS011;5897;42.640;23.310;2022-10-17T07:28:44;16.00;;;11.68;;
11681;SDS011;5897;42.640;23.310;2022-10-17T07:31:12;17.52;;;12.70;;
11681;SDS011;5897;42.640;23.310;2022-10-17T07:33:40;18.02;;;11.57;;
11681;SDS011;5897;42.640;23.310;2022-10-17T07:36:07;17.85;;;11.77;;
11681;SDS011;5897;42.640;23.310;2022-10-17T07:38:35;15.75;;;10.18;;
11681;SDS011;5897;42.640;23.310;2022-10-17T07:41:03;16.92;;;10.50;;
11681;SDS011;5897;42.640;23.310;2022-10-17T07:43:31;12.35;;;9.70;;
11681;SDS011;5897;42.640;23.310;2022-10-17T07:46:01;17.08;;;9.38;;
11681;SDS011;5897;42.640;23.310;2022-10-17T07:48:28;10.80;;;8.35;;
11681;SDS011;5897;42.640;23.310;2022-10-17T07:50:55;12.95;;;7.70;;
11681;SDS011;5897;42.640;23.310;2022-10-17T07:53:22;8.77;;;6.97;;
11681;SDS011;5897;42.640;23.310;2022-10-17T07:55:50;13.50;;;7.40;;
11681;SDS011;5897;42.640;23.310;2022-10-17T07:58:17;11.85;;;7.65;;
11681;SDS011;5897;42.640;23.310;2022-10-17T08:00:44;9.18;;;7.50;;
11681;SDS011;5897;42.640;23.310;2022-10-17T08:03:12;13.40;;;7.95;;
11681;SDS011;5897;42.640;23.310;2022-10-17T08:05:39;13.18;;;8.13;;
11681;SDS011;5897;42.640;23.310;2022-10-17T08:08:06;9.48;;;7.90;;
11681;SDS011;5897;42.640;23.310;2022-10-17T08:10:32;16.13;;;7.85;;
11681;SDS011;5897;42.640;23.310;2022-10-17T08:13:01;17.83;;;8.10;;
11681;SDS011;5897;42.640;23.310;2022-10-17T08:15:28;15.00;;;8.70;;
11681;SDS011;5897;42.640;23.310;2022-10-17T08:17:55;13.20;;;9.00;;
11681;SDS011;5897;42.640;23.310;2022-10-17T08:20:27;14.35;;;8.23;;
11681;SDS011;5897;42.640;23.310;2022-10-17T08:22:55;11.77;;;7.90;;
11681;SDS011;5897;42.640;23.310;2022-10-17T08:25:22;9.38;;;7.70;;
11681;SDS011;5897;42.640;23.310;2022-10-17T08:27:49;15.30;;;9.48;;
11681;SDS011;5897;42.640;23.310;2022-10-17T08:30:18;11.65;;;7.88;;
11681;SDS011;5897;42.640;23.310;2022-10-17T08:32:44;12.05;;;7.45;;
11681;SDS011;5897;42.640;23.310;2022-10-17T08:35:11;11.98;;;8.32;;
11681;SDS011;5897;42.640;23.310;2022-10-17T08:37:40;17.50;;;10.15;;
11681;SDS011;5897;42.640;23.310;2022-10-17T08:40:09;14.00;;;9.10;;
11681;SDS011;5897;42.640;23.310;2022-10-17T08:42:49;13.60;;;10.18;;
11681;SDS011;5897;42.640;23.310;2022-10-17T08:45:42;8.55;;;6.97;;
11681;SDS011;5897;42.640;23.310;2022-10-17T08:48:13;8.70;;;7.32;;
11681;SDS011;5897;42.640;23.310;2022-10-17T08:50:46;20.27;;;7.93;;
11681;SDS011;5897;42.640;23.310;2022-10-17T08:53:18;20.95;;;7.88;;
11681;SDS011;5897;42.640;23.310;2022-10-17T08:55:48;15.13;;;6.75;;
11681;SDS011;5897;42.640;23.310;2022-10-17T08:58:18;13.40;;;10.45;;
11681;SDS011;5897;42.640;23.310;2022-10-17T09:00:49;11.60;;;6.93;;
11681;SDS011;5897;42.640;23.310;2022-10-17T09:03:27;11.80;;;6.97;;
11681;SDS011;5897;42.640;23.310;2022-10-17T09:06:16;12.80;;;6.85;;
11681;SDS011;5897;42.640;23.310;2022-10-17T09:08:52;7.78;;;6.35;;
11681;SDS011;5897;42.640;23.310;2022-10-17T09:11:36;12.65;;;6.53;;
11681;SDS011;5897;42.640;23.310;2022-10-17T09:14:19;12.10;;;7.72;;
11681;SDS011;5897;42.640;23.310;2022-10-17T09:17:02;13.05;;;9.00;;
11681;SDS011;5897;42.640;23.310;2022-10-17T09:19:38;13.45;;;7.63;;
11681;SDS011;5897;42.640;23.310;2022-10-17T09:22:10;10.75;;;9.20;;
11681;SDS011;5897;42.640;23.310;2022-10-17T09:24:41;12.88;;;7.90;;
11681;SDS011;5897;42.640;23.310;2022-10-17T09:27:15;12.98;;;7.35;;
11681;SDS011;5897;42.640;23.310;2022-10-17T09:29:48;14.38;;;7.18;;
11681;SDS011;5897;42.640;23.310;2022-10-17T09:32:21;15.05;;;7.97;;
11681;SDS011;5897;42.640;23.310;2022-10-17T09:34:50;12.23;;;7.50;;
11681;SDS011;5897;42.640;23.310;2022-10-17T09:37:17;13.57;;;7.05;;
11681;SDS011;5897;42.640;23.310;2022-10-17T09:39:45;12.95;;;6.82;;
11681;SDS011;5897;42.640;23.310;2022-10-17T09:42:14;12.98;;;5.60;;
11681;SDS011;5897;42.640;23.310;2022-10-17T09:44:46;6.28;;;5.30;;
11681;SDS011;5897;42.640;23.310;2022-10-17T09:47:23;7.35;;;5.43;;
11681;SDS011;5897;42.640;23.310;2022-10-17T09:49:54;10.15;;;5.22;;
11681;SDS011;5897;42.640;23.310;2022-10-17T09:52:25;6.75;;;5.07;;
11681;SDS011;5897;42.640;23.310;2022-10-17T09:54:56;13.15;;;5.72;;
11681;SDS011;5897;42.640;23.310;2022-10-17T09:57:27;7.72;;;4.93;;
11681;SDS011;5897;42.640;23.310;2022-10-17T09:59:57;7.10;;;3.50;;
11681;SDS011;5897;42.640;23.310;2022-10-17T10:02:27;7.85;;;3.53;;
11681;SDS011;5897;42.640;23.310;2022-10-17T10:04:57;7.18;;;3.78;;
11681;SDS011;5897;42.640;23.310;2022-10-17T10:07:26;8.75;;;4.20;;
11681;SDS011;5897;42.640;23.310;2022-10-17T10:09:54;5.47;;;3.50;;
11681;SDS011;5897;42.640;23.310;2022-10-17T10:12:23;6.55;;;5.13;;
11681;SDS011;5897;42.640;23.310;2022-10-17T10:14:51;8.18;;;5.10;;
11681;SDS011;5897;42.640;23.310;2022-10-17T10:17:27;7.70;;;4.05;;
11681;SDS011;5897;42.640;23.310;2022-10-17T10:20:02;7.13;;;3.90;;
11681;SDS011;5897;42.640;23.310;2022-10-17T10:23:02;8.77;;;4.80;;
11681;SDS011;5897;42.640;23.310;2022-10-17T10:25:30;5.35;;;2.95;;
11681;SDS011;5897;42.640;23.310;2022-10-17T10:27:57;2.97;;;2.60;;
11681;SDS011;5897;42.640;23.310;2022-10-17T10:30:24;4.45;;;2.60;;
11681;SDS011;5897;42.640;23.310;2022-10-17T10:32:56;4.70;;;2.88;;
11681;SDS011;5897;42.640;23.310;2022-10-17T10:35:28;3.35;;;2.50;;
11681;SDS011;5897;42.640;23.310;2022-10-17T10:37:58;5.38;;;2.42;;
11681;SDS011;5897;42.640;23.310;2022-10-17T10:40:29;4.35;;;2.80;;
11681;SDS011;5897;42.640;23.310;2022-10-17T10:42:59;4.03;;;2.90;;
11681;SDS011;5897;42.640;23.310;2022-10-17T10:45:27;2.88;;;2.35;;
11681;SDS011;5897;42.640;23.310;2022-10-17T10:48:18;5.50;;;2.53;;
11681;SDS011;5897;42.640;23.310;2022-10-17T10:50:48;8.27;;;2.85;;
11681;SDS011;5897;42.640;23.310;2022-10-17T10:53:33;5.93;;;2.70;;
11681;SDS011;5897;42.640;23.310;2022-10-17T10:56:08;6.72;;;3.28;;
11681;SDS011;5897;42.640;23.310;2022-10-17T10:58:40;5.72;;;3.08;;
11681;SDS011;5897;42.640;23.310;2022-10-17T11:01:16;3.20;;;2.90;;
11681;SDS011;5897;42.640;23.310;2022-10-17T11:03:53;5.85;;;3.28;;
11681;SDS011;5897;42.640;23.310;2022-10-17T11:06:37;5.47;;;3.33;;
11681;SDS011;5897;42.640;23.310;2022-10-17T11:09:18;3.38;;;2.90;;
11681;SDS011;5897;42.640;23.310;2022-10-17T11:11:52;6.57;;;2.58;;
11681;SDS011;5897;42.640;23.310;2022-10-17T11:14:27;5.97;;;2.80;;
11681;SDS011;5897;42.640;23.310;2022-10-17T11:17:05;3.17;;;2.20;;
11681;SDS011;5897;42.640;23.310;2022-10-17T11:19:40;5.53;;;2.25;;
11681;SDS011;5897;42.640;23.310;2022-10-17T11:22:14;4.82;;;2.50;;
11681;SDS011;5897;42.640;23.310;2022-10-17T11:24:45;4.78;;;2.53;;
11681;SDS011;5897;42.640;23.310;2022-10-17T11:27:21;4.68;;;2.50;;
11681;SDS011;5897;42.640;23.310;2022-10-17T11:29:48;3.88;;;2.67;;
11681;SDS011;5897;42.640;23.310;2022-10-17T11:32:16;3.83;;;2.25;;
11681;SDS011;5897;42.640;23.310;2022-10-17T11:34:51;2.50;;;2.22;;
11681;SDS011;5897;42.640;23.310;2022-10-17T11:37:23;3.42;;;2.35;;
11681;SDS011;5897;42.640;23.310;2022-10-17T11:39:55;3.78;;;2.08;;
11681;SDS011;5897;42.640;23.310;2022-10-17T11:42:26;4.38;;;2.60;;
11681;SDS011;5897;42.640;23.310;2022-10-17T11:44:57;5.38;;;2.17;;
11681;SDS011;5897;42.640;23.310;2022-10-17T11:47:30;7.53;;;2.30;;
11681;SDS011;5897;42.640;23.310;2022-10-17T11:50:06;3.22;;;2.35;;
11681;SDS011;5897;42.640;23.310;2022-10-17T11:52:44;3.85;;;2.88;;
11681;SDS011;5897;42.640;23.310;2022-10-17T11:55:15;3.85;;;2.70;;
11681;SDS011;5897;42.640;23.310;2022-10-17T11:57:48;4.53;;;2.95;;
11681;SDS011;5897;42.640;23.310;2022-10-17T12:00:24;5.10;;;2.75;;
11681;SDS011;5897;42.640;23.310;2022-10-17T12:03:04;3.75;;;2.60;;
11681;SDS011;5897;42.640;23.310;2022-10-17T12:05:40;5.00;;;2.63;;
11681;SDS011;5897;42.640;23.310;2022-10-17T12:08:16;4.57;;;2.30;;
11681;SDS011;5897;42.640;23.310;2022-10-17T12:10:50;5.15;;;2.53;;
11681;SDS011;5897;42.640;23.310;2022-10-17T12:16:37;5.25;;;2.40;;
11681;SDS011;5897;42.640;23.310;2022-10-17T12:19:25;3.13;;;2.67;;
11681;SDS011;5897;42.640;23.310;2022-10-17T12:21:58;3.20;;;2.60;;
11681;SDS011;5897;42.640;23.310;2022-10-17T12:24:33;4.57;;;2.33;;
11681;SDS011;5897;42.640;23.310;2022-10-17T12:30:14;3.55;;;2.47;;
11681;SDS011;5897;42.640;23.310;2022-10-17T12:32:53;5.75;;;2.45;;
11681;SDS011;5897;42.640;23.310;2022-10-17T12:35:27;5.40;;;2.40;;
11681;SDS011;5897;42.640;23.310;2022-10-17T12:40:56;4.35;;;2.38;;
11681;SDS011;5897;42.640;23.310;2022-10-17T12:43:36;4.63;;;2.58;;
11681;SDS011;5897;42.640;23.310;2022-10-17T12:46:12;2.92;;;2.40;;
11681;SDS011;5897;42.640;23.310;2022-10-17T12:49:22;5.75;;;2.78;;
11681;SDS011;5897;42.640;23.310;2022-10-17T12:52:22;5.95;;;2.40;;
11681;SDS011;5897;42.640;23.310;2022-10-17T12:54:54;3.50;;;2.53;;
11681;SDS011;5897;42.640;23.310;2022-10-17T12:57:26;3.35;;;2.40;;
11681;SDS011;5897;42.640;23.310;2022-10-17T13:00:00;6.13;;;2.72;;
11681;SDS011;5897;42.640;23.310;2022-10-17T13:02:29;4.80;;;2.80;;
11681;SDS011;5897;42.640;23.310;2022-10-17T13:05:02;5.50;;;2.70;;
11681;SDS011;5897;42.640;23.310;2022-10-17T13:07:32;9.00;;;3.15;;
11681;SDS011;5897;42.640;23.310;2022-10-17T13:10:02;7.45;;;3.30;;
11681;SDS011;5897;42.640;23.310;2022-10-17T13:12:31;8.20;;;5.13;;
11681;SDS011;5897;42.640;23.310;2022-10-17T13:15:00;8.25;;;4.70;;
11681;SDS011;5897;42.640;23.310;2022-10-17T13:17:32;3.13;;;2.72;;
11681;SDS011;5897;42.640;23.310;2022-10-17T13:19:59;4.28;;;2.38;;
11681;SDS011;5897;42.640;23.310;2022-10-17T13:22:27;6.93;;;2.47;;
11681;SDS011;5897;42.640;23.310;2022-10-17T13:25:05;4.00;;;2.50;;
11681;SDS011;5897;42.640;23.310;2022-10-17T13:27:34;3.70;;;2.50;;
11681;SDS011;5897;42.640;23.310;2022-10-17T13:30:19;3.78;;;2.22;;
11681;SDS011;5897;42.640;23.310;2022-10-17T13:32:49;3.63;;;2.70;;
11681;SDS011;5897;42.640;23.310;2022-10-17T13:35:20;5.22;;;2.38;;
11681;SDS011;5897;42.640;23.310;2022-10-17T13:37:49;8.57;;;2.92;;
11681;SDS011;5897;42.640;23.310;2022-10-17T13:40:20;3.38;;;2.50;;
11681;SDS011;5897;42.640;23.310;2022-10-17T13:42:48;5.18;;;2.50;;
11681;SDS011;5897;42.640;23.310;2022-10-17T13:45:18;4.93;;;2.30;;
11681;SDS011;5897;42.640;23.310;2022-10-17T13:47:47;4.65;;;2.25;;
11681;SDS011;5897;42.640;23.310;2022-10-17T13:50:28;3.90;;;2.10;;
11681;SDS011;5897;42.640;23.310;2022-10-17T13:53:05;6.70;;;2.10;;
11681;SDS011;5897;42.640;23.310;2022-10-17T13:55:34;8.07;;;2.85;;
11681;SDS011;5897;42.640;23.310;2022-10-17T13:58:13;6.05;;;2.53;;
11681;SDS011;5897;42.640;23.310;2022-10-17T14:00:41;2.08;;;1.90;;
11681;SDS011;5897;42.640;23.310;2022-10-17T14:03:12;6.97;;;2.08;;
11681;SDS011;5897;42.640;23.310;2022-10-17T14:08:26;3.55;;;2.40;;
11681;SDS011;5897;42.640;23.310;2022-10-17T14:10:55;4.57;;;2.10;;
11681;SDS011;5897;42.640;23.310;2022-10-17T14:13:23;4.68;;;2.38;;
11681;SDS011;5897;42.640;23.310;2022-10-17T14:15:52;7.85;;;4.72;;
11681;SDS011;5897;42.640;23.310;2022-10-17T14:18:23;6.50;;;4.53;;
11681;SDS011;5897;42.640;23.310;2022-10-17T14:20:52;7.78;;;5.82;;
11681;SDS011;5897;42.640;23.310;2022-10-17T14:23:27;10.52;;;6.63;;
11681;SDS011;5897;42.640;23.310;2022-10-17T14:26:07;13.23;;;10.20;;
11681;SDS011;5897;42.640;23.310;2022-10-17T14:28:37;54.88;;;38.30;;
11681;SDS011;5897;42.640;23.310;2022-10-17T14:31:12;36.60;;;25.75;;
11681;SDS011;5897;42.640;23.310;2022-10-17T14:33:50;14.93;;;8.77;;
11681;SDS011;5897;42.640;23.310;2022-10-17T14:36:18;10.07;;;6.80;;
11681;SDS011;5897;42.640;23.310;2022-10-17T14:38:47;7.30;;;6.05;;
11681;SDS011;5897;42.640;23.310;2022-10-17T14:41:21;6.78;;;4.47;;
11681;SDS011;5897;42.640;23.310;2022-10-17T14:43:54;9.63;;;6.18;;
11681;SDS011;5897;42.640;23.310;2022-10-17T14:46:22;14.77;;;7.45;;
11681;SDS011;5897;42.640;23.310;2022-10-17T14:48:53;14.50;;;7.53;;
11681;SDS011;5897;42.640;23.310;2022-10-17T14:51:22;10.80;;;5.22;;
11681;SDS011;5897;42.640;23.310;2022-10-17T14:53:59;24.65;;;17.00;;
11681;SDS011;5897;42.640;23.310;2022-10-17T14:56:37;10.60;;;6.65;;
11681;SDS011;5897;42.640;23.310;2022-10-17T14:59:06;8.48;;;4.85;;
11681;SDS011;5897;42.640;23.310;2022-10-17T15:01:34;8.13;;;4.43;;
11681;SDS011;5897;42.640;23.310;2022-10-17T15:04:01;8.32;;;5.47;;
11681;SDS011;5897;42.640;23.310;2022-10-17T15:06:30;12.32;;;6.75;;
11681;SDS011;5897;42.640;23.310;2022-10-17T15:08:58;11.43;;;7.13;;
11681;SDS011;5897;42.640;23.310;2022-10-17T15:11:25;24.77;;;15.40;;
11681;SDS011;5897;42.640;23.310;2022-10-17T15:13:53;36.42;;;20.35;;